KOGD/OGD METAR and TAF weather

Enter ICAO airport designator
Station Type Date Time Source
KOGD METAR 2021/01/17 19:53 UTC NOAA

KOGD 171953Z VRB03KT 10SM FEW070 07/M04 A3025 RMK AO2 SLP245 T00721039 $


Station Type Date Time Source
KOGD Decoded METAR 2021/01/17 19:53 UTC NOAA

OGDEN-HINCKLEY AIRPORT, UT, United States (KOGD) 41-12N 112-01W 1353M
Jan 17, 2021 - 02:53 PM EST / 2021.01.17 1953 UTC
Wind: Variable at 3 MPH (3 KT):0
Visibility: 10 mile(s):0
Sky conditions: mostly clear
Temperature: 45.0 F (7.2 C)
Dew Point: 25.0 F (-3.9 C)
Relative Humidity: 45%
Pressure (altimeter): 30.25 in. Hg (1024 hPa)
ob: KOGD 171953Z VRB03KT 10SM FEW070 07/M04 A3025 RMK AO2 SLP245 T00721039
cycle: 20

Station Type Date Time Source
KOGD TAF 2021/01/17 18:22 UTC NOAA

TAF KOGD 171720Z 1718/1818 17007KT P6SM BKN100
FM180500 26005KT P6SM BKN050 OVC090

Example: see airport list